KONT/ONT METAR and TAF weather

Enter ICAO airport designator
Station Type Date Time Source
KONT METAR 2022/06/29 00:53 UTC NOAA

KONT 290053Z 25012G19KT 10SM FEW120 34/08 A2993 RMK AO2 SLP116 T03390078


Station Type Date Time Source
KONT Decoded METAR 2022/06/29 00:53 UTC NOAA

ONTARIO INTERNATIONAL AIRPORT, CA, United States (KONT) 34-03N 117-35W 275M
Jun 28, 2022 - 08:53 PM EDT / 2022.06.29 0053 UTC
Wind: from the WSW (250 degrees) at 14 MPH (12 KT) gusting to 22 MPH (19 KT):0
Visibility: 10 mile(s):0
Sky conditions: mostly clear
Temperature: 93.0 F (33.9 C)
Dew Point: 46.0 F (7.8 C)
Relative Humidity: 19%
Pressure (altimeter): 29.93 in. Hg (1013 hPa)
ob: KONT 290053Z 25012G19KT 10SM FEW120 34/08 A2993 RMK AO2 SLP116 T03390078
cycle: 1

Station Type Date Time Source
KONT TAF 2022/06/28 18:36 UTC NOAA

TAF KONT 281733Z 2818/2924 VRB04KT P6SM FEW150
FM282100 26012G20KT P6SM SCT100
FM290500 VRB04KT P6SM SCT150
FM292100 26012KT P6SM SCT150

Example: see airport list